Time;durP1;ratioP1;P1;durP2;ratioP2;P2;SDS_P1;SDS_P2;PMS_P1;PMS_P2;Temp;Humidity;BMP_temperature;BMP_pressure;BME280_temperature;BME280_humidity;BME280_pressure;Samples;Min_cycle;Max_cycle;Signal;HPM_P1;HPM_P2
2022/01/31 00:01:07;;;;;;;1.67;1.13;;;;;;;;;;5078063;28;20220;-75
2022/01/31 00:03:54;;;;;;;1.00;1.00;;;;;;;;;;5090396;28;20286;-76
2022/01/31 00:06:42;;;;;;;1.20;1.10;;;;;;;;;;5085753;28;20754;-76
2022/01/31 00:09:29;;;;;;;0.90;0.90;;;;;;;;;;5083660;28;20226;-76
2022/01/31 00:12:19;;;;;;;0.90;0.90;;;;;;;;;;5088548;28;20251;-76
2022/01/31 00:15:07;;;;;;;1.07;1.07;;;;;;;;;;5080495;28;20203;-76
2022/01/31 00:17:54;;;;;;;1.20;1.10;;;;;;;;;;5090888;28;20373;-76
2022/01/31 00:20:40;;;;;;;1.20;1.10;;;;;;;;;;5080877;28;20269;-75
2022/01/31 00:23:28;;;;;;;1.20;1.10;;;;;;;;;;5085659;28;20247;-76
2022/01/31 00:26:14;;;;;;;1.20;0.90;;;;;;;;;;5083817;28;20696;-76
2022/01/31 00:29:03;;;;;;;0.80;0.80;;;;;;;;;;5082307;28;20269;-76
2022/01/31 00:31:50;;;;;;;0.97;0.97;;;;;;;;;;5086303;28;20285;-76
2022/01/31 00:34:37;;;;;;;0.90;0.90;;;;;;;;;;5084206;28;20276;-76
2022/01/31 00:37:24;;;;;;;1.10;1.10;;;;;;;;;;5073792;28;20219;-76
2022/01/31 00:40:12;;;;;;;1.00;1.00;;;;;;;;;;5081681;28;20299;-76
2022/01/31 00:42:59;;;;;;;1.10;1.00;;;;;;;;;;5086032;28;20210;-76
2022/01/31 00:45:58;;;;;;;1.17;1.07;;;;;;;;;;5085241;28;20680;-76
2022/01/31 00:48:46;;;;;;;0.90;0.90;;;;;;;;;;5079383;28;20259;-76
2022/01/31 00:51:33;;;;;;;0.80;0.80;;;;;;;;;;5075206;28;20583;-75
2022/01/31 00:54:19;;;;;;;0.60;0.60;;;;;;;;;;5076685;28;20288;-76
2022/01/31 00:57:06;;;;;;;0.77;0.70;;;;;;;;;;5086962;28;20230;-76
2022/01/31 00:59:54;;;;;;;0.60;0.60;;;;;;;;;;5083477;28;20420;-76
2022/01/31 01:02:42;;;;;;;0.97;0.97;;;;;;;;;;5084998;28;20210;-76
2022/01/31 01:05:29;;;;;;;0.80;0.80;;;;;;;;;;5084450;28;20223;-76
2022/01/31 01:08:16;;;;;;;0.90;0.90;;;;;;;;;;5079207;28;20273;-76
2022/01/31 01:11:03;;;;;;;1.43;0.70;;;;;;;;;;5089269;28;20313;-76
2022/01/31 01:13:51;;;;;;;0.90;0.90;;;;;;;;;;5077860;28;20560;-76
2022/01/31 01:16:38;;;;;;;0.90;0.90;;;;;;;;;;5076849;28;20303;-76
2022/01/31 01:19:27;;;;;;;0.87;0.87;;;;;;;;;;5083353;28;20238;-76
2022/01/31 01:22:14;;;;;;;1.67;0.93;;;;;;;;;;5081724;28;20337;-76
2022/01/31 01:25:04;;;;;;;1.00;1.00;;;;;;;;;;5086193;28;20212;-76
2022/01/31 01:27:53;;;;;;;1.00;1.00;;;;;;;;;;5078077;28;20259;-76
2022/01/31 01:30:40;;;;;;;0.80;0.80;;;;;;;;;;5090462;28;20826;-76
2022/01/31 01:33:27;;;;;;;1.00;1.00;;;;;;;;;;5081954;28;20988;-76
2022/01/31 01:36:15;;;;;;;0.90;0.90;;;;;;;;;;5075525;28;20228;-76
2022/01/31 01:39:02;;;;;;;1.00;1.00;;;;;;;;;;5078519;28;20353;-76
2022/01/31 01:41:49;;;;;;;1.00;1.00;;;;;;;;;;5073022;28;20241;-76
2022/01/31 01:44:44;;;;;;;0.47;0.47;;;;;;;;;;5088267;28;20257;-75
2022/01/31 01:47:31;;;;;;;1.13;1.03;;;;;;;;;;5077269;28;20215;-76
2022/01/31 01:50:18;;;;;;;1.07;0.93;;;;;;;;;;5087166;28;20294;-76
2022/01/31 01:53:07;;;;;;;1.00;1.00;;;;;;;;;;5081550;28;20215;-76
2022/01/31 01:55:55;;;;;;;0.87;0.87;;;;;;;;;;5078571;28;20302;-76
2022/01/31 01:58:44;;;;;;;0.90;0.90;;;;;;;;;;5077850;28;20270;-76
2022/01/31 02:01:31;;;;;;;1.10;1.10;;;;;;;;;;5073855;28;20558;-76
2022/01/31 02:04:18;;;;;;;0.90;0.90;;;;;;;;;;5088075;28;20199;-76
2022/01/31 02:07:05;;;;;;;1.70;0.80;;;;;;;;;;5079851;28;21001;-76
2022/01/31 02:09:55;;;;;;;0.90;0.90;;;;;;;;;;5069387;28;20668;-76
2022/01/31 02:12:44;;;;;;;0.83;0.83;;;;;;;;;;5083288;28;20713;-76
2022/01/31 02:15:31;;;;;;;0.90;0.90;;;;;;;;;;5080913;28;20194;-76
2022/01/31 02:18:22;;;;;;;0.77;0.77;;;;;;;;;;5085733;28;20220;-75
2022/01/31 02:21:10;;;;;;;1.00;1.00;;;;;;;;;;5079877;28;20226;-76
2022/01/31 02:23:57;;;;;;;1.03;1.03;;;;;;;;;;5069670;28;20679;-76
2022/01/31 02:26:45;;;;;;;0.70;0.70;;;;;;;;;;5081423;28;20218;-75
2022/01/31 02:29:32;;;;;;;0.90;0.90;;;;;;;;;;5084176;28;20261;-76
2022/01/31 02:32:20;;;;;;;0.50;0.50;;;;;;;;;;5083399;28;20288;-76
2022/01/31 02:35:08;;;;;;;0.70;0.70;;;;;;;;;;5080129;28;20232;-76
2022/01/31 02:37:56;;;;;;;0.80;0.80;;;;;;;;;;5072542;28;20264;-76
2022/01/31 02:40:44;;;;;;;0.80;0.80;;;;;;;;;;5079702;28;20292;-76
2022/01/31 02:43:33;;;;;;;0.97;0.97;;;;;;;;;;5080232;28;20200;-76
2022/01/31 02:46:22;;;;;;;0.90;0.90;;;;;;;;;;5079410;28;20284;-75
2022/01/31 02:49:09;;;;;;;0.97;0.97;;;;;;;;;;5080952;28;20211;-76
2022/01/31 02:52:00;;;;;;;1.07;1.07;;;;;;;;;;5085934;28;20206;-76
2022/01/31 02:54:48;;;;;;;1.00;0.90;;;;;;;;;;5077949;28;21223;-76
2022/01/31 02:57:35;;;;;;;0.80;0.80;;;;;;;;;;5087108;28;20289;-76
2022/01/31 03:00:22;;;;;;;0.80;0.80;;;;;;;;;;5082998;28;20244;-76
2022/01/31 03:03:09;;;;;;;0.83;0.83;;;;;;;;;;5073213;28;20199;-76
2022/01/31 03:05:56;;;;;;;0.90;0.90;;;;;;;;;;5086444;28;20685;-76
2022/01/31 03:08:43;;;;;;;1.20;0.83;;;;;;;;;;5077650;28;20296;-76
2022/01/31 03:11:31;;;;;;;1.10;1.00;;;;;;;;;;5089869;28;20759;-76
2022/01/31 03:14:19;;;;;;;1.07;1.07;;;;;;;;;;5080621;28;20247;-76
2022/01/31 03:17:07;;;;;;;1.00;1.00;;;;;;;;;;5090991;28;20203;-76
2022/01/31 03:19:54;;;;;;;1.20;1.10;;;;;;;;;;5082894;28;20646;-74
2022/01/31 03:22:41;;;;;;;0.60;0.60;;;;;;;;;;5086683;28;20354;-76
2022/01/31 03:25:29;;;;;;;1.20;1.20;;;;;;;;;;5088063;28;20261;-76
2022/01/31 03:28:17;;;;;;;1.10;1.00;;;;;;;;;;5084262;28;20203;-76
2022/01/31 03:31:04;;;;;;;0.90;0.90;;;;;;;;;;5097072;28;20531;-76
2022/01/31 03:33:52;;;;;;;0.83;0.83;;;;;;;;;;5081632;28;20234;-75
2022/01/31 03:36:39;;;;;;;1.20;1.13;;;;;;;;;;5091027;28;20316;-76
2022/01/31 03:39:26;;;;;;;0.93;0.93;;;;;;;;;;5086534;28;20314;-76
2022/01/31 03:42:15;;;;;;;0.93;0.93;;;;;;;;;;5085941;28;20793;-76
2022/01/31 03:45:06;;;;;;;0.90;0.90;;;;;;;;;;5086192;28;20819;-75
2022/01/31 03:47:53;;;;;;;0.80;0.80;;;;;;;;;;5080660;28;20235;-76
2022/01/31 03:50:40;;;;;;;0.80;0.80;;;;;;;;;;5073956;28;20231;-75
2022/01/31 03:53:27;;;;;;;0.80;0.80;;;;;;;;;;5083013;28;20208;-76
2022/01/31 03:56:14;;;;;;;1.10;1.07;;;;;;;;;;5082488;28;20204;-76
2022/01/31 03:59:01;;;;;;;0.70;0.70;;;;;;;;;;5086204;28;20219;-75
2022/01/31 04:01:49;;;;;;;1.00;1.00;;;;;;;;;;5082860;28;20283;-76
2022/01/31 04:04:36;;;;;;;0.80;0.80;;;;;;;;;;5085685;28;20257;-76
2022/01/31 04:07:23;;;;;;;1.00;1.00;;;;;;;;;;5080963;28;20276;-76
2022/01/31 04:10:11;;;;;;;0.80;0.80;;;;;;;;;;5091431;28;20234;-75
2022/01/31 04:12:58;;;;;;;1.23;1.13;;;;;;;;;;5080574;28;20210;-76
2022/01/31 04:15:45;;;;;;;0.77;0.77;;;;;;;;;;5069109;28;20286;-74
2022/01/31 04:18:34;;;;;;;1.07;0.97;;;;;;;;;;5084647;28;20376;-75
2022/01/31 04:21:22;;;;;;;1.03;1.03;;;;;;;;;;5083985;28;20261;-76
2022/01/31 04:24:08;;;;;;;1.10;1.10;;;;;;;;;;5077396;28;20583;-76
2022/01/31 04:27:00;;;;;;;0.90;0.90;;;;;;;;;;5078563;28;20236;-76
2022/01/31 04:29:48;;;;;;;0.90;0.90;;;;;;;;;;5087704;28;20262;-76
2022/01/31 04:32:35;;;;;;;1.60;1.20;;;;;;;;;;5084357;28;20726;-76
2022/01/31 04:35:24;;;;;;;1.07;1.07;;;;;;;;;;5081487;28;20311;-76
2022/01/31 04:38:11;;;;;;;0.90;0.90;;;;;;;;;;5089161;28;20294;-76
2022/01/31 04:40:58;;;;;;;0.90;0.90;;;;;;;;;;5076203;28;20212;-76
2022/01/31 04:43:47;;;;;;;1.10;1.10;;;;;;;;;;5073021;28;20582;-76
2022/01/31 04:46:34;;;;;;;1.10;1.00;;;;;;;;;;5074996;28;20199;-74
2022/01/31 04:54:27;;;;;;;1.20;1.10;;;;;;;;;;5054919;28;20242;-66
2022/01/31 04:57:14;;;;;;;2.60;1.10;;;;;;;;;;5066116;28;20627;-65
2022/01/31 05:00:01;;;;;;;1.10;1.10;;;;;;;;;;5069576;28;20303;-65
2022/01/31 05:02:48;;;;;;;1.13;1.03;;;;;;;;;;5067084;28;20211;-65
2022/01/31 05:05:35;;;;;;;1.10;1.10;;;;;;;;;;5066233;28;20272;-65
2022/01/31 05:08:26;;;;;;;1.00;1.00;;;;;;;;;;5076020;28;20220;-65
2022/01/31 05:11:14;;;;;;;1.40;1.30;;;;;;;;;;5067405;28;20640;-66
2022/01/31 05:14:01;;;;;;;1.20;1.10;;;;;;;;;;5066522;28;20203;-65
2022/01/31 05:16:48;;;;;;;1.47;1.37;;;;;;;;;;5067901;28;20199;-65
2022/01/31 05:19:35;;;;;;;0.90;0.90;;;;;;;;;;5068624;28;20223;-65
2022/01/31 05:22:22;;;;;;;1.03;1.03;;;;;;;;;;5053195;28;20215;-65
2022/01/31 05:25:09;;;;;;;1.30;1.10;;;;;;;;;;5066332;28;20301;-65
2022/01/31 05:27:57;;;;;;;1.50;1.40;;;;;;;;;;5067462;28;20740;-66
2022/01/31 05:30:44;;;;;;;1.20;1.10;;;;;;;;;;5053198;28;20267;-67
2022/01/31 05:33:31;;;;;;;1.00;1.00;;;;;;;;;;5069227;28;20203;-66
2022/01/31 05:36:20;;;;;;;1.00;1.00;;;;;;;;;;5064441;28;20236;-65
2022/01/31 05:39:07;;;;;;;1.83;1.30;;;;;;;;;;5066768;28;20216;-65
2022/01/31 05:41:55;;;;;;;1.10;1.07;;;;;;;;;;5058003;28;20290;-66
2022/01/31 05:44:47;;;;;;;1.17;1.17;;;;;;;;;;5067345;28;20204;-65
2022/01/31 05:47:34;;;;;;;0.90;0.90;;;;;;;;;;5063659;28;20307;-65
2022/01/31 05:50:21;;;;;;;1.10;1.10;;;;;;;;;;5067901;28;20663;-65
2022/01/31 05:53:08;;;;;;;1.20;1.17;;;;;;;;;;5052669;28;20293;-65
2022/01/31 05:55:55;;;;;;;1.27;1.27;;;;;;;;;;5066399;28;20532;-65
2022/01/31 05:58:42;;;;;;;1.53;1.30;;;;;;;;;;5065487;28;20302;-66
2022/01/31 06:01:30;;;;;;;1.50;1.40;;;;;;;;;;5068624;28;20267;-65
2022/01/31 06:04:17;;;;;;;2.10;1.50;;;;;;;;;;5067363;28;20216;-65
2022/01/31 06:07:05;;;;;;;1.20;1.10;;;;;;;;;;5074731;28;20236;-65
2022/01/31 06:09:51;;;;;;;2.47;1.37;;;;;;;;;;5070104;28;20458;-65
2022/01/31 06:12:41;;;;;;;1.40;1.40;;;;;;;;;;5069676;28;20237;-65
2022/01/31 06:15:28;;;;;;;1.40;1.30;;;;;;;;;;5070829;28;20210;-65
2022/01/31 06:18:16;;;;;;;1.83;1.73;;;;;;;;;;5064798;28;20208;-65
2022/01/31 06:21:04;;;;;;;1.70;1.60;;;;;;;;;;5069067;28;20273;-65
2022/01/31 06:23:51;;;;;;;1.67;1.57;;;;;;;;;;5070182;28;20243;-65
2022/01/31 06:26:38;;;;;;;1.37;1.37;;;;;;;;;;5056877;28;20671;-65
2022/01/31 06:29:26;;;;;;;2.00;1.90;;;;;;;;;;5068760;28;20732;-65
2022/01/31 06:32:13;;;;;;;1.83;1.60;;;;;;;;;;5066292;28;20690;-65
2022/01/31 06:35:01;;;;;;;2.77;1.70;;;;;;;;;;5060163;28;20321;-65
2022/01/31 06:37:48;;;;;;;1.80;1.70;;;;;;;;;;5055930;28;20227;-65
2022/01/31 06:40:35;;;;;;;3.50;1.90;;;;;;;;;;5063882;28;20386;-65
2022/01/31 06:43:22;;;;;;;2.80;2.07;;;;;;;;;;5065756;28;20640;-65
2022/01/31 06:46:09;;;;;;;2.17;2.07;;;;;;;;;;5073350;28;20207;-65
2022/01/31 06:48:56;;;;;;;2.40;2.20;;;;;;;;;;5056433;28;20654;-65
2022/01/31 06:51:44;;;;;;;2.47;2.33;;;;;;;;;;5064657;28;20382;-65
2022/01/31 06:54:31;;;;;;;2.23;2.13;;;;;;;;;;5073312;28;20222;-65
2022/01/31 06:57:19;;;;;;;3.73;2.73;;;;;;;;;;5063801;28;20250;-65
2022/01/31 07:00:08;;;;;;;6.13;3.47;;;;;;;;;;5071791;28;20314;-65
2022/01/31 07:02:56;;;;;;;4.07;3.60;;;;;;;;;;5071242;28;20223;-65
2022/01/31 07:05:44;;;;;;;5.00;4.00;;;;;;;;;;5073552;28;20276;-65
2022/01/31 07:08:32;;;;;;;3.97;3.63;;;;;;;;;;5058964;28;20286;-65
2022/01/31 07:11:23;;;;;;;5.03;4.53;;;;;;;;;;5072427;28;20679;-65
2022/01/31 07:14:29;;;;;;;5.90;4.20;;;;;;;;;;5071142;28;20229;-65
2022/01/31 07:17:16;;;;;;;4.40;4.00;;;;;;;;;;5071007;28;20207;-66
2022/01/31 07:20:05;;;;;;;6.90;4.23;;;;;;;;;;5059914;28;20224;-65
2022/01/31 07:22:57;;;;;;;5.53;4.10;;;;;;;;;;5072526;28;20741;-65
2022/01/31 07:25:46;;;;;;;4.67;4.10;;;;;;;;;;5069361;28;20215;-65
2022/01/31 07:28:33;;;;;;;6.27;4.43;;;;;;;;;;5071482;28;20243;-66
2022/01/31 07:31:20;;;;;;;7.30;4.67;;;;;;;;;;5056730;28;20207;-68
2022/01/31 07:34:08;;;;;;;4.70;4.00;;;;;;;;;;5071137;28;20253;-65
2022/01/31 07:36:55;;;;;;;5.87;3.63;;;;;;;;;;5071297;28;20208;-65
2022/01/31 07:39:43;;;;;;;6.50;3.73;;;;;;;;;;5070017;28;20242;-65
2022/01/31 07:42:31;;;;;;;4.03;3.70;;;;;;;;;;5070571;28;20944;-65
2022/01/31 07:45:18;;;;;;;6.10;3.67;;;;;;;;;;5070261;28;20210;-65
2022/01/31 07:48:05;;;;;;;6.37;3.73;;;;;;;;;;5062620;28;20296;-65
2022/01/31 07:50:52;;;;;;;5.47;3.97;;;;;;;;;;5062906;28;20303;-65
2022/01/31 07:53:39;;;;;;;4.17;3.77;;;;;;;;;;5071633;28;20257;-65
2022/01/31 07:56:26;;;;;;;5.53;3.20;;;;;;;;;;5062082;28;20208;-65
2022/01/31 07:59:15;;;;;;;3.90;3.50;;;;;;;;;;5069510;28;20277;-66
2022/01/31 08:02:02;;;;;;;4.33;3.60;;;;;;;;;;5071591;28;20271;-65
2022/01/31 08:04:49;;;;;;;3.63;3.27;;;;;;;;;;5072089;28;20610;-66
2022/01/31 08:07:36;;;;;;;3.70;3.23;;;;;;;;;;5058838;28;20216;-65
2022/01/31 08:10:23;;;;;;;3.83;3.20;;;;;;;;;;5068087;28;20341;-65
2022/01/31 08:13:10;;;;;;;3.40;2.70;;;;;;;;;;5070924;28;20242;-66
2022/01/31 08:16:09;;;;;;;3.90;2.93;;;;;;;;;;5070019;28;20216;-65
2022/01/31 08:18:56;;;;;;;2.70;2.50;;;;;;;;;;5071157;28;20235;-65
2022/01/31 08:21:43;;;;;;;3.20;2.90;;;;;;;;;;5068816;28;20290;-65
2022/01/31 08:24:30;;;;;;;2.83;2.47;;;;;;;;;;5067550;28;20685;-66
2022/01/31 08:27:17;;;;;;;2.80;2.60;;;;;;;;;;5071530;28;20719;-65
2022/01/31 08:30:10;;;;;;;2.70;2.50;;;;;;;;;;5067197;28;20566;-65
2022/01/31 08:33:01;;;;;;;2.37;2.20;;;;;;;;;;5062075;28;20303;-63
2022/01/31 08:35:48;;;;;;;2.83;2.60;;;;;;;;;;5071130;28;20219;-66
2022/01/31 08:38:38;;;;;;;2.60;2.40;;;;;;;;;;5072367;28;20204;-64
2022/01/31 08:41:25;;;;;;;2.50;2.10;;;;;;;;;;5068648;28;20292;-65
2022/01/31 08:44:15;;;;;;;6.53;2.47;;;;;;;;;;5069096;28;20301;-66
2022/01/31 08:47:03;;;;;;;2.00;1.90;;;;;;;;;;5069778;28;20687;-66
2022/01/31 08:49:51;;;;;;;2.17;2.03;;;;;;;;;;5070268;28;20285;-66
2022/01/31 08:52:38;;;;;;;2.47;2.27;;;;;;;;;;5070080;28;20244;-66
2022/01/31 08:55:25;;;;;;;2.30;1.73;;;;;;;;;;5071802;28;20208;-66
2022/01/31 08:58:13;;;;;;;1.87;1.77;;;;;;;;;;5078247;28;20287;-66
2022/01/31 09:01:01;;;;;;;1.80;1.70;;;;;;;;;;5066691;28;20233;-66
2022/01/31 09:04:01;;;;;;;2.40;2.20;;;;;;;;;;5065792;28;20299;-66
2022/01/31 09:06:49;;;;;;;2.10;2.00;;;;;;;;;;5067172;28;20216;-66
2022/01/31 09:09:36;;;;;;;1.60;1.50;;;;;;;;;;5074781;28;20228;-66
2022/01/31 09:12:26;;;;;;;2.57;2.07;;;;;;;;;;5068583;28;20235;-67
2022/01/31 09:15:13;;;;;;;2.50;2.20;;;;;;;;;;5068757;28;20263;-66
2022/01/31 09:18:00;;;;;;;2.27;2.00;;;;;;;;;;5067831;28;20270;-66
2022/01/31 09:20:47;;;;;;;2.30;2.10;;;;;;;;;;5068242;28;20259;-66
2022/01/31 09:23:37;;;;;;;1.80;1.70;;;;;;;;;;5066496;28;20295;-67
2022/01/31 09:26:25;;;;;;;2.10;1.90;;;;;;;;;;5067554;28;20204;-65
2022/01/31 09:29:12;;;;;;;1.80;1.70;;;;;;;;;;5067134;28;20297;-66
2022/01/31 09:32:02;;;;;;;2.10;1.57;;;;;;;;;;5064664;28;20575;-67
2022/01/31 09:34:49;;;;;;;1.73;1.63;;;;;;;;;;5068129;28;20212;-66
2022/01/31 09:37:36;;;;;;;2.70;1.80;;;;;;;;;;5057662;28;20344;-66
2022/01/31 09:40:24;;;;;;;1.97;1.87;;;;;;;;;;5063469;28;20634;-66
2022/01/31 09:43:39;;;;;;;1.47;1.37;;;;;;;;;;5059835;28;20265;-66
2022/01/31 09:49:27;;;;;;;1.80;1.70;;;;;;;;;;5068961;28;20747;-66
2022/01/31 09:52:14;;;;;;;1.60;1.50;;;;;;;;;;5062783;28;20229;-66
2022/01/31 09:55:01;;;;;;;1.40;1.30;;;;;;;;;;5055414;28;20462;-65
2022/01/31 09:57:50;;;;;;;1.80;1.70;;;;;;;;;;5063056;28;20225;-66
2022/01/31 10:00:37;;;;;;;1.33;1.23;;;;;;;;;;5074861;28;20313;-66
2022/01/31 10:03:23;;;;;;;1.30;1.30;;;;;;;;;;5066704;28;20333;-66
2022/01/31 10:06:20;;;;;;;1.60;1.50;;;;;;;;;;5064194;28;20280;-66
2022/01/31 10:09:11;;;;;;;1.40;1.30;;;;;;;;;;5067282;28;20206;-66
2022/01/31 10:12:06;;;;;;;1.57;1.47;;;;;;;;;;5072078;28;20682;-66
2022/01/31 10:18:00;;;;;;;1.43;1.33;;;;;;;;;;5064544;28;20689;-66
2022/01/31 10:20:47;;;;;;;1.30;1.10;;;;;;;;;;5071189;28;20314;-66
2022/01/31 10:23:41;;;;;;;1.40;1.30;;;;;;;;;;5059150;28;20215;-65
2022/01/31 10:26:30;;;;;;;1.43;1.33;;;;;;;;;;5071526;28;20211;-65
2022/01/31 10:29:18;;;;;;;1.20;1.20;;;;;;;;;;5074488;28;20207;-65
2022/01/31 10:32:09;;;;;;;1.90;1.40;;;;;;;;;;5067042;28;20741;-65
2022/01/31 10:34:58;;;;;;;1.00;1.00;;;;;;;;;;5074441;28;20341;-65
2022/01/31 10:37:46;;;;;;;1.53;1.43;;;;;;;;;;5072187;28;20215;-66
2022/01/31 10:44:13;;;;;;;1.40;1.30;;;;;;;;;;5065680;28;20216;-66
2022/01/31 10:50:46;;;;;;;1.00;1.00;;;;;;;;;;5072892;28;20209;-66
2022/01/31 10:53:39;;;;;;;2.03;1.40;;;;;;;;;;5059871;28;20578;-66
2022/01/31 10:56:36;;;;;;;1.27;1.00;;;;;;;;;;5062988;28;20698;-65
2022/01/31 10:59:29;;;;;;;1.13;1.03;;;;;;;;;;5064759;28;20250;-66
2022/01/31 11:02:18;;;;;;;2.03;1.50;;;;;;;;;;5062349;28;20376;-65
2022/01/31 11:05:22;;;;;;;1.30;1.20;;;;;;;;;;5064357;28;20205;-66
2022/01/31 11:08:15;;;;;;;1.90;1.40;;;;;;;;;;5062515;28;20683;-66
2022/01/31 11:11:02;;;;;;;1.00;1.00;;;;;;;;;;5067297;28;20291;-66
2022/01/31 11:13:50;;;;;;;2.17;1.10;;;;;;;;;;5066760;28;20738;-66
2022/01/31 11:16:38;;;;;;;1.70;1.60;;;;;;;;;;5062027;28;20209;-65
2022/01/31 11:19:31;;;;;;;1.40;1.30;;;;;;;;;;5062016;28;20203;-65
2022/01/31 11:22:27;;;;;;;1.40;1.20;;;;;;;;;;5066620;28;20589;-65
2022/01/31 11:25:16;;;;;;;2.10;1.30;;;;;;;;;;5065676;28;20215;-65
2022/01/31 11:28:04;;;;;;;1.77;1.10;;;;;;;;;;5066216;28;20234;-65
2022/01/31 11:30:52;;;;;;;1.00;1.00;;;;;;;;;;5064228;28;20299;-65
2022/01/31 11:33:39;;;;;;;1.37;1.37;;;;;;;;;;5064183;28;20806;-63
2022/01/31 11:36:26;;;;;;;1.00;1.00;;;;;;;;;;5064067;28;20204;-63
2022/01/31 11:39:16;;;;;;;1.23;1.13;;;;;;;;;;5064570;28;20733;-65
2022/01/31 11:42:05;;;;;;;1.40;1.30;;;;;;;;;;5061521;28;20528;-66
2022/01/31 11:44:58;;;;;;;1.60;1.50;;;;;;;;;;5068428;28;20197;-63
2022/01/31 11:47:49;;;;;;;1.80;1.20;;;;;;;;;;5066635;28;20644;-64
2022/01/31 11:50:43;;;;;;;1.30;1.20;;;;;;;;;;5059504;28;20229;-63
2022/01/31 11:53:32;;;;;;;2.27;1.20;;;;;;;;;;5063864;28;20245;-63
2022/01/31 11:56:22;;;;;;;1.30;1.20;;;;;;;;;;5064546;28;20217;-63
2022/01/31 11:59:12;;;;;;;1.23;1.13;;;;;;;;;;5062011;28;20337;-64
2022/01/31 12:02:00;;;;;;;1.37;1.27;;;;;;;;;;5065010;28;20222;-64
2022/01/31 12:04:49;;;;;;;1.40;1.30;;;;;;;;;;5066588;28;20216;-63
2022/01/31 12:07:41;;;;;;;1.00;1.00;;;;;;;;;;5058854;28;20218;-64
2022/01/31 12:10:33;;;;;;;1.17;1.17;;;;;;;;;;5064823;28;20233;-64
2022/01/31 12:13:40;;;;;;;1.40;1.30;;;;;;;;;;5064588;28;20209;-64
2022/01/31 12:16:47;;;;;;;1.60;1.30;;;;;;;;;;5061996;28;20208;-66
2022/01/31 12:19:48;;;;;;;1.40;1.30;;;;;;;;;;5062662;28;20638;-64
2022/01/31 12:22:44;;;;;;;1.50;1.40;;;;;;;;;;5066557;28;20224;-64
2022/01/31 12:25:32;;;;;;;1.47;1.37;;;;;;;;;;5069251;28;20218;-64
2022/01/31 12:28:48;;;;;;;1.97;1.10;;;;;;;;;;5055738;28;20346;-64
2022/01/31 12:31:38;;;;;;;1.07;1.07;;;;;;;;;;5055732;28;20215;-64
2022/01/31 12:34:36;;;;;;;2.00;1.27;;;;;;;;;;5062824;28;20212;-64
2022/01/31 12:37:33;;;;;;;1.07;1.07;;;;;;;;;;5062146;28;20215;-64
2022/01/31 12:40:29;;;;;;;1.10;1.10;;;;;;;;;;5066084;28;20215;-64
2022/01/31 12:43:47;;;;;;;0.80;0.80;;;;;;;;;;5060215;28;20217;-64
2022/01/31 12:46:35;;;;;;;1.27;1.17;;;;;;;;;;5062042;28;20693;-64
2022/01/31 12:49:22;;;;;;;0.90;0.90;;;;;;;;;;5064080;28;20217;-64
2022/01/31 12:52:11;;;;;;;0.83;0.83;;;;;;;;;;5060420;28;20310;-64
2022/01/31 12:55:09;;;;;;;0.90;0.90;;;;;;;;;;5061119;28;20217;-63
2022/01/31 12:57:57;;;;;;;1.03;0.90;;;;;;;;;;5058090;28;20279;-63
2022/01/31 13:00:44;;;;;;;1.00;0.87;;;;;;;;;;5063118;28;20432;-64
2022/01/31 13:03:37;;;;;;;0.90;0.90;;;;;;;;;;5058617;28;20672;-64
2022/01/31 13:06:26;;;;;;;1.00;0.90;;;;;;;;;;5060807;28;20252;-64
2022/01/31 13:09:22;;;;;;;0.60;0.60;;;;;;;;;;5060797;28;20247;-65
2022/01/31 13:12:14;;;;;;;0.93;0.87;;;;;;;;;;5061788;28;20225;-64
2022/01/31 13:15:03;;;;;;;1.00;0.80;;;;;;;;;;5062772;28;20575;-64
2022/01/31 13:17:50;;;;;;;0.80;0.80;;;;;;;;;;5062979;28;20405;-63
2022/01/31 13:20:41;;;;;;;0.63;0.63;;;;;;;;;;5060253;28;20204;-64
2022/01/31 13:23:28;;;;;;;1.23;1.00;;;;;;;;;;5058262;28;20227;-63
2022/01/31 13:26:15;;;;;;;1.00;1.00;;;;;;;;;;5060438;28;20245;-64
2022/01/31 13:29:02;;;;;;;1.20;1.03;;;;;;;;;;5062676;28;20245;-64
2022/01/31 13:31:48;;;;;;;0.90;0.90;;;;;;;;;;5058036;28;20207;-64
2022/01/31 13:34:40;;;;;;;0.90;0.90;;;;;;;;;;5054771;28;20216;-64
2022/01/31 13:37:39;;;;;;;0.80;0.80;;;;;;;;;;5059467;28;20212;-67
2022/01/31 13:40:31;;;;;;;0.60;0.60;;;;;;;;;;5050384;28;20216;-64
2022/01/31 13:43:22;;;;;;;0.80;0.80;;;;;;;;;;5062901;28;20253;-64
2022/01/31 13:46:16;;;;;;;0.90;0.70;;;;;;;;;;5051939;28;20280;-66
2022/01/31 13:49:12;;;;;;;0.60;0.60;;;;;;;;;;5042985;28;20340;-65
2022/01/31 13:51:59;;;;;;;0.60;0.60;;;;;;;;;;5036870;28;20258;-65
2022/01/31 13:54:47;;;;;;;0.97;0.80;;;;;;;;;;5007157;28;20219;-66
2022/01/31 13:57:34;;;;;;;0.70;0.70;;;;;;;;;;5011188;28;20220;-64
2022/01/31 14:00:24;;;;;;;0.73;0.73;;;;;;;;;;5009561;28;20306;-63
2022/01/31 14:03:17;;;;;;;0.80;0.80;;;;;;;;;;5015001;28;20245;-63
2022/01/31 14:06:09;;;;;;;1.03;0.90;;;;;;;;;;5012711;28;20216;-64
2022/01/31 14:09:00;;;;;;;0.87;0.87;;;;;;;;;;5018592;28;20214;-64
2022/01/31 14:11:50;;;;;;;0.70;0.60;;;;;;;;;;4990535;28;20237;-64
2022/01/31 14:14:37;;;;;;;0.90;0.60;;;;;;;;;;5005592;28;20216;-63
2022/01/31 14:17:25;;;;;;;0.93;0.93;;;;;;;;;;5020203;28;20298;-64
2022/01/31 14:20:12;;;;;;;0.70;0.70;;;;;;;;;;5004993;28;20287;-63
2022/01/31 14:23:00;;;;;;;0.80;0.80;;;;;;;;;;5012838;28;20697;-63
2022/01/31 14:25:48;;;;;;;1.47;1.00;;;;;;;;;;5010771;28;20272;-64
2022/01/31 14:28:40;;;;;;;1.50;1.40;;;;;;;;;;5011621;28;20211;-64
2022/01/31 14:31:32;;;;;;;1.80;1.70;;;;;;;;;;5020477;28;20278;-63
2022/01/31 14:34:20;;;;;;;1.90;1.80;;;;;;;;;;5018215;28;20616;-63
2022/01/31 14:37:09;;;;;;;2.00;1.90;;;;;;;;;;5019174;28;20305;-63
2022/01/31 14:40:19;;;;;;;2.07;1.97;;;;;;;;;;5020338;28;20223;-63
2022/01/31 14:43:15;;;;;;;1.90;1.80;;;;;;;;;;5023618;28;20314;-64
2022/01/31 14:49:10;;;;;;;1.70;1.60;;;;;;;;;;5017059;28;20199;-64
2022/01/31 14:52:04;;;;;;;1.80;1.70;;;;;;;;;;5016969;28;20332;-64
2022/01/31 14:55:01;;;;;;;1.77;1.67;;;;;;;;;;5019504;28;20294;-64
2022/01/31 14:57:50;;;;;;;1.90;1.80;;;;;;;;;;5024924;28;20751;-64
2022/01/31 15:00:38;;;;;;;1.70;1.60;;;;;;;;;;5023751;28;20582;-63
2022/01/31 15:03:27;;;;;;;2.03;1.83;;;;;;;;;;5017864;28;20266;-63
2022/01/31 15:06:14;;;;;;;1.60;1.50;;;;;;;;;;5041068;28;20782;-63
2022/01/31 15:09:01;;;;;;;1.93;1.77;;;;;;;;;;5046291;28;20330;-64
2022/01/31 15:11:48;;;;;;;1.60;1.50;;;;;;;;;;5040266;28;20643;-64
2022/01/31 15:14:35;;;;;;;1.80;1.70;;;;;;;;;;5045032;28;20659;-63
2022/01/31 15:17:23;;;;;;;1.87;1.73;;;;;;;;;;5040247;28;20284;-63
2022/01/31 15:20:12;;;;;;;1.70;1.60;;;;;;;;;;5043664;28;20304;-63
2022/01/31 15:23:00;;;;;;;1.33;1.20;;;;;;;;;;5042478;28;20230;-64
2022/01/31 15:25:47;;;;;;;1.53;1.43;;;;;;;;;;5037152;28;20220;-63
2022/01/31 15:28:34;;;;;;;2.20;1.50;;;;;;;;;;5044722;28;20218;-64
2022/01/31 15:31:22;;;;;;;1.70;1.60;;;;;;;;;;5041049;28;20320;-64
2022/01/31 15:34:09;;;;;;;2.93;1.40;;;;;;;;;;5047118;28;20224;-64
2022/01/31 15:36:58;;;;;;;1.50;1.40;;;;;;;;;;5044424;28;20266;-64
2022/01/31 15:39:44;;;;;;;1.50;1.40;;;;;;;;;;5040967;28;20572;-64
2022/01/31 15:42:31;;;;;;;1.60;1.30;;;;;;;;;;5041906;28;20651;-64
2022/01/31 15:45:19;;;;;;;1.67;1.57;;;;;;;;;;5041669;28;20205;-64
2022/01/31 15:48:06;;;;;;;1.60;1.50;;;;;;;;;;5042170;28;20624;-66
2022/01/31 15:50:53;;;;;;;1.20;1.10;;;;;;;;;;5039380;28;20341;-64
2022/01/31 15:53:41;;;;;;;1.30;1.30;;;;;;;;;;5042848;28;20534;-64
2022/01/31 15:56:28;;;;;;;1.50;1.40;;;;;;;;;;5040556;28;20213;-64
2022/01/31 15:59:15;;;;;;;1.47;1.10;;;;;;;;;;5040142;28;20313;-64
2022/01/31 16:02:03;;;;;;;1.57;1.47;;;;;;;;;;5046939;28;20307;-64
2022/01/31 16:04:50;;;;;;;1.60;1.40;;;;;;;;;;5041433;28;20211;-64
2022/01/31 16:07:38;;;;;;;1.30;1.30;;;;;;;;;;5040804;28;20299;-63
2022/01/31 16:10:26;;;;;;;1.53;1.33;;;;;;;;;;5041109;28;20299;-64
2022/01/31 16:13:19;;;;;;;1.50;1.40;;;;;;;;;;5035643;28;20295;-64
2022/01/31 16:16:06;;;;;;;1.33;1.27;;;;;;;;;;5034047;28;20207;-65
2022/01/31 16:18:53;;;;;;;1.00;1.00;;;;;;;;;;5043611;28;20291;-65
2022/01/31 16:21:41;;;;;;;1.20;1.20;;;;;;;;;;5046687;28;20802;-64
2022/01/31 16:24:27;;;;;;;2.10;1.10;;;;;;;;;;5042889;28;20346;-64
2022/01/31 16:27:18;;;;;;;1.20;1.10;;;;;;;;;;5039345;28;20299;-64
2022/01/31 16:30:06;;;;;;;1.47;1.33;;;;;;;;;;5039535;28;20206;-64
2022/01/31 16:32:53;;;;;;;1.90;1.30;;;;;;;;;;5040949;28;20210;-64
2022/01/31 16:35:40;;;;;;;1.70;1.60;;;;;;;;;;5040290;28;20208;-65
2022/01/31 16:38:27;;;;;;;1.10;1.10;;;;;;;;;;5047988;28;20204;-64
2022/01/31 16:41:14;;;;;;;1.27;1.17;;;;;;;;;;5044797;28;20210;-64
2022/01/31 16:44:03;;;;;;;1.13;1.13;;;;;;;;;;5047648;28;20262;-64
2022/01/31 16:46:51;;;;;;;1.10;1.10;;;;;;;;;;5042085;28;20234;-66
2022/01/31 16:49:38;;;;;;;1.70;1.53;;;;;;;;;;5040148;28;20214;-64
2022/01/31 16:52:26;;;;;;;1.40;1.30;;;;;;;;;;5039203;28;20247;-64
2022/01/31 16:55:13;;;;;;;1.40;1.30;;;;;;;;;;5039816;28;20283;-64
2022/01/31 16:58:02;;;;;;;1.47;1.37;;;;;;;;;;5042512;28;20304;-64
2022/01/31 17:00:50;;;;;;;2.40;1.43;;;;;;;;;;5042521;28;20209;-64
2022/01/31 17:03:37;;;;;;;1.33;1.20;;;;;;;;;;5035931;28;20293;-64
2022/01/31 17:06:24;;;;;;;1.30;1.20;;;;;;;;;;5045909;28;20215;-64
2022/01/31 17:09:11;;;;;;;1.60;1.17;;;;;;;;;;5043614;28;20342;-64
2022/01/31 17:11:58;;;;;;;1.10;1.10;;;;;;;;;;5038104;28;20231;-64
2022/01/31 17:14:45;;;;;;;1.30;1.20;;;;;;;;;;5041540;28;20203;-64